Time;durP1;ratioP1;P1;durP2;ratioP2;P2;SDS_P1;SDS_P2;PMS_P1;PMS_P2;Temp;Humidity;BMP_temperature;BMP_pressure;BME280_temperature;BME280_humidity;BME280_pressure;Samples;Min_cycle;Max_cycle;Signal;HPM_P1;HPM_P2
2022/11/12 00:00:15;;;;;;;18.77;11.93;;;;;;;6.61;74.03;100744.30;1796736;79;23132;-40
2022/11/12 00:03:00;;;;;;;18.07;11.95;;;;;;;6.65;73.99;100747.99;1796926;79;20935;-41
2022/11/12 00:05:48;;;;;;;20.82;13.22;;;;;;;6.72;73.91;100747.86;1796888;79;21512;-40
2022/11/12 00:08:34;;;;;;;19.37;12.03;;;;;;;6.78;73.94;100747.18;1796980;79;20967;-40
2022/11/12 00:11:19;;;;;;;17.17;11.90;;;;;;;6.77;73.74;100750.45;1796980;79;21070;-40
2022/11/12 00:14:06;;;;;;;18.82;12.10;;;;;;;6.74;73.81;100755.63;1796915;79;21199;-41
2022/11/12 00:16:51;;;;;;;19.80;12.63;;;;;;;6.73;73.76;100753.47;1796889;79;20984;-40
2022/11/12 00:19:38;;;;;;;17.45;11.28;;;;;;;6.74;73.65;100751.58;1796891;79;21556;-40
2022/11/12 00:22:23;;;;;;;17.52;11.78;;;;;;;6.81;73.63;100756.03;1793026;79;20955;-41
2022/11/12 00:25:09;;;;;;;19.48;12.50;;;;;;;6.82;73.48;100746.86;1778389;80;21812;-40
2022/11/12 00:28:06;;;;;;;17.77;12.07;;;;;;;6.80;73.59;100747.69;1774226;79;21113;-40
2022/11/12 00:30:51;;;;;;;20.12;12.78;;;;;;;6.77;73.65;100745.61;1774041;80;20996;-40
2022/11/12 00:33:42;;;;;;;16.95;11.93;;;;;;;6.72;73.60;100740.32;1773052;80;20987;-41
2022/11/12 00:36:27;;;;;;;18.67;11.60;;;;;;;6.71;73.59;100742.76;1773334;80;21046;-40
2022/11/12 00:39:14;;;;;;;20.12;11.25;;;;;;;6.74;73.59;100742.14;1772583;80;21628;-40
2022/11/12 00:41:59;;;;;;;16.70;11.55;;;;;;;6.75;73.60;100740.51;1772887;80;21125;-40
2022/11/12 00:44:44;;;;;;;19.52;11.93;;;;;;;6.73;73.75;100744.62;1772971;80;20996;-40
2022/11/12 00:47:29;;;;;;;21.35;12.90;;;;;;;6.69;73.89;100748.44;1773598;80;21010;-40
2022/11/12 00:50:15;;;;;;;18.07;10.25;;;;;;;6.67;73.95;100747.16;1773178;80;21572;-40
2022/11/12 00:53:00;;;;;;;20.10;10.90;;;;;;;6.69;73.91;100745.74;1773370;79;21015;-40
2022/11/12 00:55:45;;;;;;;15.70;10.78;;;;;;;6.71;73.93;100750.84;1773402;80;21109;-40
2022/11/12 00:58:33;;;;;;;16.75;10.78;;;;;;;6.74;74.19;100738.11;1773049;80;21548;-40
2022/11/12 01:01:19;;;;;;;16.60;10.53;;;;;;;6.75;74.23;100744.55;1780640;79;21108;-40
2022/11/12 01:04:04;;;;;;;24.87;11.70;;;;;;;6.78;74.14;100749.88;1780717;80;21013;-40
2022/11/12 01:06:49;;;;;;;15.18;10.38;;;;;;;6.72;74.28;100739.77;1780745;80;21041;-40
2022/11/12 01:09:34;;;;;;;16.82;9.58;;;;;;;6.73;74.12;100740.58;1780788;80;21129;-40
2022/11/12 01:12:20;;;;;;;17.57;10.15;;;;;;;6.78;74.12;100739.09;1780874;79;21447;-41
2022/11/12 01:15:08;;;;;;;15.13;10.18;;;;;;;6.81;74.18;100739.86;1780531;79;20913;-40
2022/11/12 01:17:53;;;;;;;15.28;10.10;;;;;;;6.83;74.10;100747.08;1780710;79;21008;-40
2022/11/12 01:20:39;;;;;;;16.20;10.30;;;;;;;6.79;74.02;100744.74;1780784;79;20989;-40
2022/11/12 01:23:25;;;;;;;16.25;9.83;;;;;;;6.71;74.06;100740.06;1776630;79;22964;-40
2022/11/12 01:26:14;;;;;;;14.80;9.65;;;;;;;6.69;74.04;100740.90;1775297;80;21021;-40
2022/11/12 01:29:00;;;;;;;13.20;9.30;;;;;;;6.74;74.01;100748.34;1774681;80;21045;-40
2022/11/12 01:31:45;;;;;;;16.32;9.53;;;;;;;6.76;74.19;100746.16;1772418;81;20981;-40
2022/11/12 01:34:32;;;;;;;15.03;10.32;;;;;;;6.74;74.19;100746.99;1772428;79;20962;-40
2022/11/12 01:37:18;;;;;;;16.95;10.35;;;;;;;6.72;74.30;100741.66;1772288;81;23166;-40
2022/11/12 01:40:06;;;;;;;15.55;9.45;;;;;;;6.67;74.32;100739.07;1772203;81;21512;-40
2022/11/12 01:42:52;;;;;;;14.85;9.08;;;;;;;6.72;74.31;100739.77;1772457;79;20886;-41
2022/11/12 01:45:40;;;;;;;13.20;9.65;;;;;;;6.82;74.08;100738.77;1772354;81;21025;-40
2022/11/12 01:48:36;;;;;;;15.72;9.98;;;;;;;6.87;73.92;100735.40;1772468;81;21037;-40
2022/11/12 01:51:23;;;;;;;16.62;10.58;;;;;;;6.87;73.96;100734.63;1772608;81;21224;-40
2022/11/12 01:54:10;;;;;;;17.35;10.13;;;;;;;6.87;73.92;100727.89;1772243;79;21049;-40
2022/11/12 01:56:55;;;;;;;16.50;8.90;;;;;;;6.88;74.00;100737.55;1772377;81;20991;-40
2022/11/12 01:59:43;;;;;;;14.73;8.90;;;;;;;6.91;73.80;100735.61;1772478;81;21030;-40
2022/11/12 02:02:28;;;;;;;16.15;9.43;;;;;;;6.96;73.62;100740.91;1772471;79;21080;-40
2022/11/12 02:05:13;;;;;;;13.95;9.23;;;;;;;7.01;73.47;100741.34;1772536;81;21125;-40
2022/11/12 02:07:58;;;;;;;15.53;10.13;;;;;;;7.00;73.62;100737.84;1772591;79;21476;-40
2022/11/12 02:10:43;;;;;;;14.10;9.40;;;;;;;6.98;73.48;100746.77;1772437;81;21018;-40
2022/11/12 02:16:39;;;;;;;16.35;9.65;;;;;;;6.87;73.77;100731.93;1772374;81;21997;-40
2022/11/12 02:19:25;;;;;;;15.35;9.53;;;;;;;6.90;73.73;100727.27;1772438;81;21129;-41
2022/11/12 02:22:10;;;;;;;13.28;9.23;;;;;;;6.91;73.93;100718.09;1772171;81;21566;-40
2022/11/12 06:57:28;;;;;;;20.57;14.35;;;;;;;8.32;87.09;100713.14;1823094;78;22654;-40
2022/11/12 07:00:15;;;;;;;26.15;15.30;;;;;;;8.43;86.27;100703.62;1792759;79;20983;-40
2022/11/12 07:03:07;;;;;;;21.97;13.62;;;;;;;8.44;86.12;100703.88;1797878;79;21997;-40
2022/11/12 07:05:52;;;;;;;20.52;14.20;;;;;;;8.54;85.97;100700.89;1797817;79;20927;-40
2022/11/12 07:08:37;;;;;;;21.65;14.20;;;;;;;8.65;85.04;100701.66;1797786;79;20910;-40
2022/11/12 07:11:22;;;;;;;27.82;16.25;;;;;;;8.77;84.21;100706.45;1797766;79;21548;-40
2022/11/12 07:14:09;;;;;;;24.95;14.50;;;;;;;8.82;83.60;100695.48;1797693;79;21528;-40
2022/11/12 07:16:54;;;;;;;24.98;15.15;;;;;;;8.87;82.95;100692.63;1797839;79;21225;-40
2022/11/12 07:19:40;;;;;;;24.92;15.63;;;;;;;8.95;82.39;100697.84;1797833;79;21003;-40
2022/11/12 07:22:25;;;;;;;29.72;18.90;;;;;;;9.05;82.18;100704.30;1797859;79;20928;-40
2022/11/12 07:25:10;;;;;;;21.25;15.50;;;;;;;9.11;82.07;100706.52;1797822;79;20959;-40
2022/11/12 07:27:56;;;;;;;23.30;15.25;;;;;;;9.21;81.26;100693.79;1797998;79;21544;-40
2022/11/12 07:30:42;;;;;;;23.57;15.43;;;;;;;9.33;81.16;100689.91;1797918;79;21223;-40
2022/11/12 07:33:29;;;;;;;26.85;16.23;;;;;;;9.47;80.69;100701.37;1797810;79;20960;-40
2022/11/12 07:36:16;;;;;;;29.15;16.35;;;;;;;9.57;80.36;100699.70;1797800;79;20924;-40
2022/11/12 07:39:01;;;;;;;23.60;15.95;;;;;;;9.74;79.94;100701.57;1797941;79;20959;-40
2022/11/12 07:41:46;;;;;;;26.57;16.20;;;;;;;9.92;79.23;100684.19;1797921;79;21066;-40
2022/11/12 07:44:31;;;;;;;22.85;15.32;;;;;;;10.04;78.48;100685.10;1797879;79;21102;-40
2022/11/12 07:47:17;;;;;;;26.17;15.90;;;;;;;10.13;78.10;100683.72;1797860;79;21569;-40
2022/11/12 07:50:05;;;;;;;22.87;15.00;;;;;;;10.25;77.97;100689.30;1798094;79;20896;-40
2022/11/12 07:52:50;;;;;;;22.55;14.98;;;;;;;10.44;77.84;100684.28;1797680;79;21392;-40
2022/11/12 07:55:36;;;;;;;27.30;16.85;;;;;;;10.67;77.00;100689.42;1797873;79;21521;-40
2022/11/12 07:58:22;;;;;;;26.00;17.00;;;;;;;10.78;75.80;100686.02;1797944;79;23171;-40
2022/11/12 08:01:24;;;;;;;22.60;14.93;;;;;;;10.90;75.12;100684.73;1797820;79;21479;-40
2022/11/12 08:04:10;;;;;;;26.55;15.90;;;;;;;11.07;74.21;100700.11;1797891;79;20988;-40
2022/11/12 08:06:56;;;;;;;26.52;16.75;;;;;;;11.13;73.25;100698.00;1797939;79;21019;-40
2022/11/12 08:09:42;;;;;;;24.47;15.53;;;;;;;11.09;73.22;100702.48;1797406;79;21540;-40
2022/11/12 08:12:28;;;;;;;24.90;15.45;;;;;;;11.02;73.40;100702.22;1797410;79;23108;-40
2022/11/12 08:15:13;;;;;;;24.70;15.83;;;;;;;10.98;73.60;100703.45;1797122;79;21549;-40
2022/11/12 08:17:59;;;;;;;20.68;14.93;;;;;;;10.98;73.62;100705.37;1797561;79;21536;-40
2022/11/12 08:20:44;;;;;;;23.52;15.70;;;;;;;10.92;73.32;100705.31;1797521;79;21011;-40
2022/11/12 08:23:29;;;;;;;24.67;14.83;;;;;;;10.80;73.16;100701.38;1797467;79;21002;-40
2022/11/12 08:26:17;;;;;;;26.87;15.60;;;;;;;10.72;73.45;100703.59;1797443;79;21129;-40
2022/11/12 08:29:04;;;;;;;25.00;15.23;;;;;;;10.71;73.59;100710.69;1797437;79;20959;-40
2022/11/12 08:31:49;;;;;;;22.93;16.45;;;;;;;10.62;73.62;100713.45;1797479;79;20924;-40
2022/11/12 08:34:38;;;;;;;23.32;14.87;;;;;;;10.56;74.22;100709.33;1791252;79;21035;-40
2022/11/12 08:37:22;;;;;;;26.12;15.68;;;;;;;10.56;74.45;100724.23;1797544;79;20939;-40
2022/11/12 08:40:09;;;;;;;19.90;14.68;;;;;;;10.57;74.36;100708.21;1797408;79;21214;-40
2022/11/12 08:42:59;;;;;;;23.77;15.20;;;;;;;10.53;74.45;100709.19;1797434;79;21034;-40
2022/11/12 08:45:44;;;;;;;24.37;15.13;;;;;;;10.50;74.47;100716.08;1797517;79;20925;-40
2022/11/12 08:48:31;;;;;;;20.82;14.28;;;;;;;10.53;74.58;100715.97;1797366;79;21393;-40
2022/11/12 08:51:15;;;;;;;22.75;14.03;;;;;;;10.60;74.71;100712.97;1797458;79;21004;-40
2022/11/12 08:54:01;;;;;;;24.18;14.75;;;;;;;10.62;74.92;100714.81;1797497;79;21293;-40
2022/11/12 08:56:46;;;;;;;23.25;14.63;;;;;;;10.64;74.72;100714.49;1797535;79;21469;-40
2022/11/12 08:59:31;;;;;;;24.82;13.80;;;;;;;10.63;74.30;100708.27;1797459;79;20911;-40
2022/11/12 09:02:16;;;;;;;25.92;15.08;;;;;;;10.70;74.36;100696.33;1797375;79;21042;-40
2022/11/12 09:05:01;;;;;;;24.05;14.33;;;;;;;10.76;74.38;100695.03;1797495;79;21043;-40
2022/11/12 09:07:46;;;;;;;22.70;14.43;;;;;;;10.85;74.17;100701.19;1797432;79;21120;-40
2022/11/12 09:10:32;;;;;;;21.68;13.95;;;;;;;11.01;73.68;100693.84;1797515;79;21477;-40
2022/11/12 09:13:18;;;;;;;19.73;13.25;;;;;;;11.24;72.75;100692.39;1797354;79;21983;-40
2022/11/12 09:16:06;;;;;;;22.22;13.62;;;;;;;11.46;71.94;100683.92;1797320;79;21016;-40
2022/11/12 09:18:51;;;;;;;21.48;14.33;;;;;;;11.65;71.18;100682.87;1797307;79;21059;-40
2022/11/12 14:20:26;;;;;;;21.95;14.28;;;;;;;11.80;66.26;100599.17;1830824;78;22726;-40
2022/11/12 14:23:21;;;;;;;21.12;13.45;;;;;;;11.78;65.51;100603.58;1787798;79;21642;-40
2022/11/12 14:26:06;;;;;;;17.92;12.37;;;;;;;11.57;65.93;100595.45;1787756;80;21328;-39
2022/11/12 14:28:56;;;;;;;18.98;12.30;;;;;;;11.48;66.27;100598.83;1758188;80;21006;-40
2022/11/12 14:31:41;;;;;;;15.90;10.30;;;;;;;11.39;66.31;100591.33;1787692;80;20986;-40
2022/11/12 14:34:31;;;;;;;12.07;10.10;;;;;;;11.36;66.58;100593.93;1758314;80;21013;-40
2022/11/12 14:37:36;;;;;;;13.85;11.18;;;;;;;11.33;66.68;100599.45;1787629;80;20983;-40
2022/11/12 14:40:24;;;;;;;14.38;11.63;;;;;;;11.24;66.67;100591.39;1807958;79;21138;-40
2022/11/12 14:43:29;;;;;;;13.93;10.63;;;;;;;11.15;67.05;100593.95;1816541;78;21522;-40
2022/11/12 14:46:40;;;;;;;11.33;9.28;;;;;;;11.10;67.23;100596.87;1816599;79;21042;-40
2022/11/12 14:49:42;;;;;;;14.33;9.48;;;;;;;11.07;67.54;100593.47;1782113;79;21470;-40
2022/11/12 14:52:35;;;;;;;11.43;8.90;;;;;;;11.07;67.52;100583.98;1816406;79;21056;-40
2022/11/12 14:55:29;;;;;;;11.38;9.05;;;;;;;11.04;67.55;100584.06;1816523;79;21219;-40
2022/11/12 14:58:15;;;;;;;11.63;8.20;;;;;;;11.00;67.65;100583.70;1816467;78;20996;-40
2022/11/12 15:01:25;;;;;;;9.43;7.53;;;;;;;10.96;67.82;100590.92;1816472;79;21000;-40
2022/11/12 15:04:17;;;;;;;10.72;8.35;;;;;;;11.01;67.87;100589.37;1816712;79;21876;-40
2022/11/12 15:07:03;;;;;;;10.63;8.20;;;;;;;11.03;67.86;100585.77;1816472;79;20964;-40
2022/11/12 15:09:49;;;;;;;11.33;8.28;;;;;;;10.99;68.04;100586.21;1816416;78;21188;-40
2022/11/12 15:12:35;;;;;;;10.70;7.72;;;;;;;10.95;68.15;100579.84;1816307;79;21482;-40
2022/11/12 15:15:23;;;;;;;12.63;8.20;;;;;;;10.95;68.40;100577.13;1816455;78;20960;-40
2022/11/12 15:18:19;;;;;;;13.23;8.47;;;;;;;10.97;68.37;100577.03;1815228;78;22953;-40
2022/11/12 15:21:15;;;;;;;12.25;8.63;;;;;;;10.98;68.45;100577.83;1805295;79;21538;-40
2022/11/12 15:24:26;;;;;;;10.50;7.70;;;;;;;10.93;68.63;100574.77;1805496;79;21071;-40
2022/11/12 15:27:37;;;;;;;10.78;6.95;;;;;;;10.89;68.75;100584.11;1805367;79;20977;-40
2022/11/12 15:30:28;;;;;;;10.00;7.42;;;;;;;10.93;69.01;100577.47;1805096;79;20948;-40
2022/11/12 15:33:22;;;;;;;11.22;7.08;;;;;;;10.95;69.02;100585.27;1804625;79;22047;-40
2022/11/12 15:36:17;;;;;;;10.10;7.08;;;;;;;10.90;69.31;100577.56;1804769;79;21025;-40
2022/11/12 15:39:03;;;;;;;8.08;6.50;;;;;;;10.86;69.71;100577.99;1804762;79;21117;-40
2022/11/12 15:41:58;;;;;;;8.18;6.50;;;;;;;10.89;69.87;100576.55;1804728;79;21008;-40
2022/11/12 15:44:43;;;;;;;7.95;6.58;;;;;;;10.94;69.91;100579.63;1804669;79;21467;-40
2022/11/12 15:47:29;;;;;;;7.03;6.15;;;;;;;10.96;70.02;100575.44;1804697;79;21445;-40
2022/11/12 15:50:19;;;;;;;8.75;6.60;;;;;;;10.94;70.16;100571.48;1804837;79;20994;-40
2022/11/12 15:53:05;;;;;;;9.40;6.30;;;;;;;10.93;70.43;100573.96;1804963;79;21132;-40
2022/11/12 15:55:51;;;;;;;8.03;6.92;;;;;;;10.96;70.71;100578.16;1804684;79;20886;-40
2022/11/12 15:58:36;;;;;;;9.45;7.28;;;;;;;10.96;70.90;100571.93;1804737;79;20973;-40
2022/11/12 16:01:21;;;;;;;9.25;7.20;;;;;;;10.93;71.03;100572.61;1804895;79;21010;-40
2022/11/12 16:04:07;;;;;;;10.32;6.62;;;;;;;10.91;71.19;100583.78;1805050;79;21040;-40
2022/11/12 16:06:54;;;;;;;10.35;6.72;;;;;;;10.90;71.50;100578.91;1804860;79;21125;-40
2022/11/12 16:09:39;;;;;;;9.43;6.75;;;;;;;10.94;71.52;100578.27;1804728;79;21033;-40
2022/11/12 16:12:25;;;;;;;9.15;6.85;;;;;;;10.93;71.64;100568.53;1804896;79;21543;-40
2022/11/12 16:15:19;;;;;;;13.32;8.33;;;;;;;10.90;72.00;100571.33;1804714;79;21064;-40
2022/11/12 16:18:05;;;;;;;10.45;6.90;;;;;;;10.86;72.14;100564.43;1804764;79;21182;-40
2022/11/12 16:20:50;;;;;;;11.65;7.60;;;;;;;10.90;72.17;100564.55;1804709;79;21152;-40
2022/11/12 16:23:36;;;;;;;9.43;7.45;;;;;;;10.94;72.19;100561.99;1804652;79;20972;-40
2022/11/12 16:26:27;;;;;;;14.20;7.85;;;;;;;10.89;72.26;100554.27;1804820;79;21033;-40
2022/11/12 16:29:13;;;;;;;11.63;7.75;;;;;;;10.85;72.48;100553.34;1804646;79;21359;-40
2022/11/12 16:31:59;;;;;;;12.45;7.58;;;;;;;10.84;72.57;100562.59;1804783;79;21044;-40
2022/11/12 16:34:44;;;;;;;13.43;8.33;;;;;;;10.86;72.55;100571.21;1804691;79;21118;-40
2022/11/12 16:37:30;;;;;;;10.05;7.30;;;;;;;10.82;72.65;100568.94;1804591;79;21002;-40
2022/11/12 16:40:19;;;;;;;12.18;7.75;;;;;;;10.79;72.79;100568.25;1804590;79;21640;-40
2022/11/12 16:43:04;;;;;;;9.23;6.83;;;;;;;10.77;73.01;100573.20;1804810;79;21566;-40
2022/11/12 16:45:50;;;;;;;11.65;8.55;;;;;;;10.82;73.05;100574.92;1804704;79;20958;-40
2022/11/12 16:48:35;;;;;;;12.47;8.40;;;;;;;10.82;73.04;100566.78;1804792;79;21562;-40
2022/11/12 16:51:21;;;;;;;11.97;8.33;;;;;;;10.78;73.23;100572.08;1784149;79;20969;-40
2022/11/12 16:54:07;;;;;;;13.05;8.03;;;;;;;10.76;73.33;100577.03;1804776;79;21023;-40
2022/11/12 16:56:53;;;;;;;11.97;8.25;;;;;;;10.80;73.36;100582.02;1804677;79;20965;-40
2022/11/12 16:59:39;;;;;;;13.65;8.75;;;;;;;10.84;73.32;100574.04;1804819;79;21000;-40
2022/11/12 17:02:24;;;;;;;13.60;9.53;;;;;;;10.82;73.52;100585.22;1798516;79;21140;-40
2022/11/12 17:05:22;;;;;;;11.75;8.80;;;;;;;10.80;73.62;100583.94;1804602;79;21088;-40
2022/11/12 17:08:09;;;;;;;12.68;8.43;;;;;;;10.80;73.72;100587.45;1804714;79;20996;-40
2022/11/12 17:10:55;;;;;;;11.70;8.63;;;;;;;10.86;73.66;100582.06;1804904;79;21785;-40
2022/11/12 17:13:41;;;;;;;12.50;9.20;;;;;;;10.85;73.72;100576.96;1804747;79;21080;-40
2022/11/12 17:16:27;;;;;;;16.90;9.10;;;;;;;10.80;73.87;100576.59;1804827;79;21127;-40
2022/11/12 17:19:12;;;;;;;14.93;9.85;;;;;;;10.81;74.02;100572.77;1804638;79;21271;-40
2022/11/12 17:21:58;;;;;;;12.70;9.48;;;;;;;10.83;74.10;100575.95;1804801;79;20955;-40
2022/11/12 17:24:43;;;;;;;14.83;10.63;;;;;;;10.83;74.22;100580.02;1804656;79;20925;-40
2022/11/12 17:27:28;;;;;;;17.92;9.33;;;;;;;10.78;74.51;100572.08;1804809;79;21001;-40
2022/11/12 17:30:15;;;;;;;16.45;9.73;;;;;;;10.79;74.60;100567.45;1804763;79;21124;-40
2022/11/12 17:33:01;;;;;;;14.43;9.30;;;;;;;10.82;74.66;100579.79;1804597;79;21024;-40
2022/11/12 17:35:47;;;;;;;14.30;10.53;;;;;;;10.86;74.69;100593.47;1804586;79;21009;-40
2022/11/12 17:38:32;;;;;;;13.68;9.73;;;;;;;10.83;74.87;100591.44;1804614;79;21060;-40
2022/11/12 17:41:17;;;;;;;12.05;9.05;;;;;;;10.84;74.92;100589.73;1804671;79;20989;-40
2022/11/12 17:44:03;;;;;;;14.85;9.85;;;;;;;10.86;75.01;100579.91;1804757;79;21127;-40
2022/11/12 17:46:49;;;;;;;15.18;10.80;;;;;;;10.86;75.11;100580.70;1804632;79;21057;-40
2022/11/12 17:49:35;;;;;;;13.20;10.25;;;;;;;10.81;75.54;100587.69;1804696;79;20986;-40
2022/11/12 17:52:20;;;;;;;16.05;9.85;;;;;;;10.79;75.86;100583.73;1804694;79;21020;-40
2022/11/12 17:55:07;;;;;;;14.95;10.15;;;;;;;10.80;76.04;100596.94;1804800;79;21228;-40
2022/11/12 17:57:52;;;;;;;18.17;10.95;;;;;;;10.78;76.30;100592.43;1804727;79;22083;-40
2022/11/12 18:00:39;;;;;;;14.53;9.83;;;;;;;10.75;76.52;100598.49;1804595;79;20952;-40
2022/11/12 18:03:24;;;;;;;16.12;9.90;;;;;;;10.74;76.70;100596.93;1804723;79;20957;-40
2022/11/12 18:06:16;;;;;;;15.85;11.33;;;;;;;10.75;76.93;100598.49;1804603;79;20969;-40
2022/11/12 18:09:05;;;;;;;16.85;11.25;;;;;;;10.77;77.10;100592.19;1804552;79;21550;-40
2022/11/12 18:11:53;;;;;;;17.57;10.65;;;;;;;10.75;77.33;100597.70;1804590;79;21228;-40
2022/11/12 18:14:39;;;;;;;15.85;10.43;;;;;;;10.76;77.50;100592.52;1804444;79;20918;-40
2022/11/12 18:17:24;;;;;;;14.15;10.58;;;;;;;10.77;77.60;100592.75;1804735;79;20957;-40
2022/11/12 18:20:11;;;;;;;16.37;11.90;;;;;;;10.75;77.96;100595.78;1804730;79;21029;-40
2022/11/12 18:22:56;;;;;;;17.25;11.05;;;;;;;10.73;78.19;100587.76;1804624;79;21002;-40
2022/11/12 18:25:42;;;;;;;19.87;11.35;;;;;;;10.71;78.23;100581.30;1804662;79;21228;-40
2022/11/12 18:28:28;;;;;;;17.62;11.12;;;;;;;10.78;78.40;100591.07;1804642;79;21556;-40
2022/11/12 18:31:13;;;;;;;17.37;11.78;;;;;;;10.82;78.42;100582.50;1798767;79;21006;-40
2022/11/12 18:33:58;;;;;;;18.27;11.28;;;;;;;10.80;78.38;100583.38;1804611;79;20961;-40
2022/11/12 18:36:43;;;;;;;15.43;11.20;;;;;;;10.78;78.54;100589.72;1804665;79;20981;-40
2022/11/12 18:39:29;;;;;;;18.15;12.18;;;;;;;10.79;78.72;100584.53;1804765;79;21558;-40
2022/11/12 18:42:14;;;;;;;17.07;12.43;;;;;;;10.81;78.89;100586.33;1804913;79;21507;-40
2022/11/12 18:45:00;;;;;;;17.87;10.78;;;;;;;10.77;79.14;100585.41;1804756;79;21510;-40
2022/11/12 18:47:46;;;;;;;16.65;12.13;;;;;;;10.73;79.45;100585.05;1804692;79;21004;-40
2022/11/12 18:50:33;;;;;;;16.10;11.50;;;;;;;10.76;79.48;100587.88;1804720;79;20914;-40
2022/11/12 18:53:18;;;;;;;17.90;12.50;;;;;;;10.74;79.69;100588.00;1804695;79;21291;-40
2022/11/12 18:56:07;;;;;;;20.25;11.88;;;;;;;10.71;79.85;100596.77;1804709;79;20992;-40
2022/11/12 18:58:52;;;;;;;16.37;11.73;;;;;;;10.68;80.37;100583.33;1804723;79;21275;-40
2022/11/12 19:01:38;;;;;;;20.40;11.38;;;;;;;10.68;80.37;100583.33;1804721;79;21676;-40
2022/11/12 19:04:23;;;;;;;18.07;12.43;;;;;;;10.65;80.38;100582.61;1804701;79;20961;-40
2022/11/12 19:07:08;;;;;;;16.48;11.55;;;;;;;10.62;80.59;100586.55;1804766;79;23155;-40
2022/11/12 19:09:55;;;;;;;16.60;11.43;;;;;;;10.59;80.80;100582.59;1804714;79;21013;-40
2022/11/12 19:12:42;;;;;;;18.77;11.55;;;;;;;10.63;80.76;100584.08;1804756;79;21562;-40
2022/11/12 19:15:26;;;;;;;17.98;11.78;;;;;;;10.65;80.81;100577.19;1804832;79;21025;-40
2022/11/12 19:18:12;;;;;;;17.73;11.28;;;;;;;10.57;81.16;100576.70;1804864;79;21069;-40
2022/11/12 19:21:04;;;;;;;16.30;11.12;;;;;;;10.59;81.19;100581.23;1804730;79;21246;-40
2022/11/12 22:21:40;;;;;;;4.47;3.60;;;;;;;10.70;80.84;100559.36;1829410;78;22192;-40
2022/11/12 22:24:26;;;;;;;5.92;4.00;;;;;;;10.78;79.50;100560.44;1790400;79;20919;-39
2022/11/12 22:27:11;;;;;;;4.22;3.40;;;;;;;10.71;78.93;100570.45;1784983;80;21906;-40
2022/11/12 22:29:58;;;;;;;4.55;3.62;;;;;;;10.71;78.86;100579.14;1784721;80;20923;-40
2022/11/12 22:32:43;;;;;;;5.37;4.10;;;;;;;10.75;78.83;100575.44;1785121;79;20919;-40
2022/11/12 22:35:27;;;;;;;4.92;3.90;;;;;;;10.81;78.68;100576.04;1784985;80;20892;-40
2022/11/12 22:38:13;;;;;;;4.10;3.40;;;;;;;10.86;78.56;100577.20;1785024;80;20950;-40
2022/11/12 22:41:04;;;;;;;3.87;2.87;;;;;;;10.95;77.83;100578.48;1784765;80;23138;-40
2022/11/12 22:43:55;;;;;;;5.75;3.12;;;;;;;11.01;77.04;100586.66;1785134;79;21477;-40
2022/11/12 22:46:41;;;;;;;6.20;3.47;;;;;;;11.03;76.52;100583.06;1784747;80;20947;-40
2022/11/12 22:49:26;;;;;;;4.35;3.27;;;;;;;11.02;76.28;100594.47;1784730;80;20928;-40
2022/11/12 22:52:12;;;;;;;6.05;3.70;;;;;;;10.99;75.80;100586.21;1784802;79;20931;-40
2022/11/12 22:54:58;;;;;;;5.47;4.10;;;;;;;10.99;75.55;100595.70;1784754;80;21118;-40
2022/11/12 22:57:44;;;;;;;7.72;4.15;;;;;;;11.02;75.46;100590.97;1784549;80;21542;-40
2022/11/12 23:00:30;;;;;;;5.58;4.12;;;;;;;11.03;75.30;100597.98;1784589;80;20959;-40
2022/11/12 23:03:16;;;;;;;6.50;4.28;;;;;;;11.00;75.31;100591.84;1784522;79;21496;-40
2022/11/12 23:06:03;;;;;;;5.20;3.52;;;;;;;10.96;75.50;100593.64;1784634;80;21073;-40
2022/11/12 23:08:49;;;;;;;4.80;3.60;;;;;;;10.91;75.30;100597.34;1784627;79;23161;-40
2022/11/12 23:11:36;;;;;;;5.55;3.85;;;;;;;10.92;75.03;100600.86;1784479;80;21482;-40
2022/11/12 23:14:22;;;;;;;6.20;3.92;;;;;;;10.80;75.21;100600.22;1784765;80;20975;-40
2022/11/12 23:17:08;;;;;;;5.60;3.50;;;;;;;10.75;75.53;100603.13;1784595;80;21013;-40
2022/11/12 23:19:52;;;;;;;4.37;3.42;;;;;;;10.70;75.62;100603.31;1784563;79;21058;-40
2022/11/12 23:22:38;;;;;;;5.25;3.65;;;;;;;10.65;75.86;100603.54;1784895;80;21291;-40
2022/11/12 23:25:24;;;;;;;5.85;4.00;;;;;;;10.39;75.96;100565.17;1784672;80;20987;-40
2022/11/12 23:28:09;;;;;;;11.10;4.15;;;;;;;10.62;76.25;100604.98;1785206;79;21018;-40
2022/11/12 23:30:55;;;;;;;4.53;3.60;;;;;;;10.57;76.50;100601.66;1784984;79;21003;-40
2022/11/12 23:33:52;;;;;;;5.72;3.40;;;;;;;10.56;76.62;100606.84;1784429;80;20956;-40
2022/11/12 23:36:37;;;;;;;4.85;3.45;;;;;;;10.51;76.71;100607.83;1784582;79;21118;-40
2022/11/12 23:39:22;;;;;;;6.40;3.90;;;;;;;10.55;76.64;100615.56;1784576;80;21002;-40
2022/11/12 23:42:07;;;;;;;5.78;4.20;;;;;;;10.51;76.88;100606.47;1784626;80;20998;-40
2022/11/12 23:44:52;;;;;;;6.03;3.77;;;;;;;10.49;76.92;100609.30;1784535;79;20931;-40
2022/11/12 23:47:38;;;;;;;5.08;3.87;;;;;;;10.50;76.80;100608.98;1784529;79;21086;-40
2022/11/12 23:50:23;;;;;;;6.00;3.92;;;;;;;10.50;76.35;100607.62;1784523;79;21230;-40
2022/11/12 23:53:08;;;;;;;6.08;3.62;;;;;;;10.42;76.54;100608.45;1784408;79;21649;-40
2022/11/12 23:55:53;;;;;;;8.23;4.28;;;;;;;10.28;76.79;100604.61;1784506;80;20915;-40
2022/11/12 23:58:39;;;;;;;4.10;3.47;;;;;;;10.22;76.96;100605.12;1784369;80;21031;-40
